sensor_id;sensor_type;location;lat;lon;timestamp;pressure;altitude;pressure_sealevel;temperature;humidity
33191;BME280;19554;42.652;23.364;2022-12-18T00:01:04;95334.66;;;7.16;83.87
33191;BME280;19554;42.652;23.364;2022-12-18T00:03:35;95332.38;;;7.03;84.29
33191;BME280;19554;42.652;23.364;2022-12-18T00:06:01;95348.41;;;7.13;84.08
33191;BME280;19554;42.652;23.364;2022-12-18T00:08:26;95297.25;;;6.74;83.91
33191;BME280;19554;42.652;23.364;2022-12-18T00:10:52;95303.69;;;6.78;83.67
33191;BME280;19554;42.652;23.364;2022-12-18T00:13:18;95249.84;;;6.38;83.32
33191;BME280;19554;42.652;23.364;2022-12-18T00:15:43;95344.97;;;6.91;82.93
33191;BME280;19554;42.652;23.364;2022-12-18T00:18:09;95353.00;;;6.96;82.88
33191;BME280;19554;42.652;23.364;2022-12-18T00:20:39;95364.09;;;6.93;82.96
33191;BME280;19554;42.652;23.364;2022-12-18T00:23:05;95351.75;;;6.81;82.99
33191;BME280;19554;42.652;23.364;2022-12-18T00:25:35;95379.56;;;7.01;82.91
33191;BME280;19554;42.652;23.364;2022-12-18T00:28:01;95390.19;;;7.01;83.03
33191;BME280;19554;42.652;23.364;2022-12-18T00:30:27;95374.72;;;6.93;82.84
33191;BME280;19554;42.652;23.364;2022-12-18T00:32:52;95366.69;;;6.87;82.66
33191;BME280;19554;42.652;23.364;2022-12-18T00:35:18;95376.69;;;6.80;82.73
33191;BME280;19554;42.652;23.364;2022-12-18T00:37:43;95397.03;;;6.97;82.96
33191;BME280;19554;42.652;23.364;2022-12-18T00:40:09;95375.69;;;6.86;82.42
33191;BME280;19554;42.652;23.364;2022-12-18T00:42:37;95398.16;;;7.01;82.29
33191;BME280;19554;42.652;23.364;2022-12-18T00:45:29;95403.47;;;7.01;82.24
33191;BME280;19554;42.652;23.364;2022-12-18T00:47:55;95401.88;;;7.00;82.12
33191;BME280;19554;42.652;23.364;2022-12-18T00:50:22;95401.38;;;7.03;82.61
33191;BME280;19554;42.652;23.364;2022-12-18T00:52:48;95361.25;;;6.77;81.91
33191;BME280;19554;42.652;23.364;2022-12-18T00:55:14;95398.16;;;7.01;81.60
33191;BME280;19554;42.652;23.364;2022-12-18T00:57:40;95414.22;;;7.11;82.00
33191;BME280;19554;42.652;23.364;2022-12-18T01:00:07;95338.75;;;6.63;81.44
33191;BME280;19554;42.652;23.364;2022-12-18T01:02:34;95402.25;;;7.08;81.59
33191;BME280;19554;42.652;23.364;2022-12-18T01:05:00;95389.66;;;6.99;81.07
33191;BME280;19554;42.652;23.364;2022-12-18T01:07:25;95416.97;;;7.16;80.95
33191;BME280;19554;42.652;23.364;2022-12-18T01:09:50;95393.38;;;6.98;80.63
33191;BME280;19554;42.652;23.364;2022-12-18T01:12:16;95422.53;;;7.15;80.32
33191;BME280;19554;42.652;23.364;2022-12-18T01:14:41;95373.22;;;6.63;80.58
33191;BME280;19554;42.652;23.364;2022-12-18T01:17:06;95407.03;;;6.89;80.61
33191;BME280;19554;42.652;23.364;2022-12-18T01:19:32;95431.50;;;6.92;80.55
33191;BME280;19554;42.652;23.364;2022-12-18T01:21:57;95427.28;;;6.96;80.80
33191;BME280;19554;42.652;23.364;2022-12-18T01:24:23;95404.63;;;6.88;80.42
33191;BME280;19554;42.652;23.364;2022-12-18T01:26:48;95382.34;;;6.50;80.11
33191;BME280;19554;42.652;23.364;2022-12-18T01:29:14;95433.91;;;6.76;80.53
33191;BME280;19554;42.652;23.364;2022-12-18T01:31:39;95437.56;;;6.70;79.93
33191;BME280;19554;42.652;23.364;2022-12-18T01:34:05;95436.19;;;6.68;79.92
33191;BME280;19554;42.652;23.364;2022-12-18T01:36:33;95429.91;;;6.57;80.03
33191;BME280;19554;42.652;23.364;2022-12-18T01:39:09;95434.59;;;6.50;80.13
33191;BME280;19554;42.652;23.364;2022-12-18T01:41:35;95419.47;;;6.33;79.98
33191;BME280;19554;42.652;23.364;2022-12-18T01:47:16;95377.31;;;5.86;80.68
33191;BME280;19554;42.652;23.364;2022-12-18T01:49:43;95446.28;;;6.20;80.89
33191;BME280;19554;42.652;23.364;2022-12-18T01:52:09;95444.69;;;6.19;80.87
33191;BME280;19554;42.652;23.364;2022-12-18T01:54:34;95362.47;;;5.57;81.19
33191;BME280;19554;42.652;23.364;2022-12-18T01:56:59;95444.00;;;6.12;81.19
33191;BME280;19554;42.652;23.364;2022-12-18T01:59:26;95435.69;;;5.91;81.03
33191;BME280;19554;42.652;23.364;2022-12-18T02:01:53;95440.22;;;5.79;81.37
33191;BME280;19554;42.652;23.364;2022-12-18T02:04:24;95455.72;;;5.87;81.70
33191;BME280;19554;42.652;23.364;2022-12-18T02:06:59;95406.06;;;5.37;82.08
33191;BME280;19554;42.652;23.364;2022-12-18T02:09:36;95467.44;;;5.63;82.45
33191;BME280;19554;42.652;23.364;2022-12-18T02:12:19;95434.38;;;5.37;82.69
33191;BME280;19554;42.652;23.364;2022-12-18T02:14:58;95402.88;;;5.12;83.10
33191;BME280;19554;42.652;23.364;2022-12-18T02:17:38;95473.78;;;5.62;83.22
33191;BME280;19554;42.652;23.364;2022-12-18T02:28:06;95450.44;;;5.59;82.75
33191;BME280;19554;42.652;23.364;2022-12-18T02:30:35;95484.19;;;5.80;82.56
33191;BME280;19554;42.652;23.364;2022-12-18T02:33:04;95482.38;;;5.92;82.62
33191;BME280;19554;42.652;23.364;2022-12-18T02:35:30;95482.91;;;5.94;82.09
33191;BME280;19554;42.652;23.364;2022-12-18T02:37:57;95453.16;;;5.64;81.57
33191;BME280;19554;42.652;23.364;2022-12-18T02:40:24;95490.06;;;5.94;81.78
33191;BME280;19554;42.652;23.364;2022-12-18T02:42:51;95495.34;;;5.94;81.30
33191;BME280;19554;42.652;23.364;2022-12-18T02:45:17;95475.91;;;5.88;81.52
33191;BME280;19554;42.652;23.364;2022-12-18T02:47:46;95453.28;;;5.69;81.03
33191;BME280;19554;42.652;23.364;2022-12-18T02:50:35;95460.75;;;5.72;80.63
33191;BME280;19554;42.652;23.364;2022-12-18T02:53:13;95486.50;;;5.88;80.85
33191;BME280;19554;42.652;23.364;2022-12-18T02:58:38;95489.31;;;5.70;81.35
33191;BME280;19554;42.652;23.364;2022-12-18T03:03:46;95378.91;;;4.90;80.91
33191;BME280;19554;42.652;23.364;2022-12-18T03:06:21;95504.31;;;5.64;81.45
33191;BME280;19554;42.652;23.364;2022-12-18T03:08:51;95501.00;;;5.45;81.55
33191;BME280;19554;42.652;23.364;2022-12-18T03:11:19;95514.69;;;5.42;81.41
33191;BME280;19554;42.652;23.364;2022-12-18T03:14:06;95512.88;;;5.31;82.00
33191;BME280;19554;42.652;23.364;2022-12-18T03:16:34;95513.56;;;5.38;82.24
33191;BME280;19554;42.652;23.364;2022-12-18T03:19:04;95489.28;;;5.18;82.05
33191;BME280;19554;42.652;23.364;2022-12-18T03:21:40;95509.75;;;5.46;82.15
33191;BME280;19554;42.652;23.364;2022-12-18T03:24:09;95528.25;;;5.58;81.47
33191;BME280;19554;42.652;23.364;2022-12-18T03:26:38;95528.47;;;5.68;81.38
33191;BME280;19554;42.652;23.364;2022-12-18T03:29:12;95491.19;;;5.58;81.10
33191;BME280;19554;42.652;23.364;2022-12-18T03:31:42;95531.13;;;5.68;80.10
33191;BME280;19554;42.652;23.364;2022-12-18T03:34:18;95486.03;;;5.51;80.22
33191;BME280;19554;42.652;23.364;2022-12-18T03:36:46;95530.75;;;5.76;79.64
33191;BME280;19554;42.652;23.364;2022-12-18T03:39:13;95503.19;;;5.49;79.70
33191;BME280;19554;42.652;23.364;2022-12-18T03:41:51;95502.72;;;5.52;79.50
33191;BME280;19554;42.652;23.364;2022-12-18T03:44:35;95535.97;;;5.71;79.20
33191;BME280;19554;42.652;23.364;2022-12-18T03:47:19;95554.63;;;5.64;79.36
33191;BME280;19554;42.652;23.364;2022-12-18T03:49:59;95541.50;;;5.46;79.62
33191;BME280;19554;42.652;23.364;2022-12-18T03:52:41;95575.72;;;5.47;79.85
33191;BME280;19554;42.652;23.364;2022-12-18T03:55:12;95582.03;;;5.46;79.39
33191;BME280;19554;42.652;23.364;2022-12-18T03:57:38;95575.72;;;5.47;79.61
33191;BME280;19554;42.652;23.364;2022-12-18T04:00:10;95540.81;;;5.39;79.32
33191;BME280;19554;42.652;23.364;2022-12-18T04:02:39;95581.00;;;5.47;79.37
33191;BME280;19554;42.652;23.364;2022-12-18T04:05:07;95549.00;;;5.37;79.62
33191;BME280;19554;42.652;23.364;2022-12-18T04:07:34;95539.91;;;5.33;79.05
33191;BME280;19554;42.652;23.364;2022-12-18T04:10:02;95557.28;;;5.53;79.18
33191;BME280;19554;42.652;23.364;2022-12-18T04:12:29;95572.91;;;5.66;79.08
33191;BME280;19554;42.652;23.364;2022-12-18T04:14:54;95506.91;;;5.24;78.83
33191;BME280;19554;42.652;23.364;2022-12-18T04:17:20;95562.00;;;5.39;78.66
33191;BME280;19554;42.652;23.364;2022-12-18T04:19:46;95585.63;;;5.40;78.57
33191;BME280;19554;42.652;23.364;2022-12-18T04:22:12;95599.41;;;5.42;78.75
33191;BME280;19554;42.652;23.364;2022-12-18T04:24:37;95576.41;;;5.31;78.63
33191;BME280;19554;42.652;23.364;2022-12-18T04:27:03;95590.78;;;5.35;78.14
33191;BME280;19554;42.652;23.364;2022-12-18T04:29:28;95594.25;;;5.24;78.40
33191;BME280;19554;42.652;23.364;2022-12-18T04:31:54;95596.19;;;5.17;78.26
33191;BME280;19554;42.652;23.364;2022-12-18T04:34:20;95565.44;;;5.04;78.62
33191;BME280;19554;42.652;23.364;2022-12-18T04:36:46;95584.47;;;5.13;78.50
33191;BME280;19554;42.652;23.364;2022-12-18T04:39:11;95569.94;;;5.04;78.33
33191;BME280;19554;42.652;23.364;2022-12-18T04:41:37;95603.31;;;5.28;77.26
33191;BME280;19554;42.652;23.364;2022-12-18T04:44:02;95601.25;;;5.07;77.17
33191;BME280;19554;42.652;23.364;2022-12-18T04:46:28;95628.41;;;5.14;77.71
33191;BME280;19554;42.652;23.364;2022-12-18T04:48:53;95621.63;;;5.18;77.33
33191;BME280;19554;42.652;23.364;2022-12-18T04:51:19;95600.41;;;4.94;76.87
33191;BME280;19554;42.652;23.364;2022-12-18T04:53:44;95613.72;;;4.88;76.43
33191;BME280;19554;42.652;23.364;2022-12-18T04:56:12;95643.78;;;4.93;76.79
33191;BME280;19554;42.652;23.364;2022-12-18T04:58:39;95640.09;;;4.94;76.59
33191;BME280;19554;42.652;23.364;2022-12-18T05:01:04;95596.06;;;4.58;76.08
33191;BME280;19554;42.652;23.364;2022-12-18T05:03:30;95642.97;;;4.93;75.91
33191;BME280;19554;42.652;23.364;2022-12-18T05:05:55;95595.03;;;4.59;75.57
33191;BME280;19554;42.652;23.364;2022-12-18T05:08:21;95652.00;;;4.85;75.41
33191;BME280;19554;42.652;23.364;2022-12-18T05:10:46;95660.28;;;4.77;75.63
33191;BME280;19554;42.652;23.364;2022-12-18T05:13:11;95557.06;;;4.12;76.37
33191;BME280;19554;42.652;23.364;2022-12-18T05:15:37;95640.34;;;4.63;75.85
33191;BME280;19554;42.652;23.364;2022-12-18T05:18:03;95660.28;;;4.77;75.98
33191;BME280;19554;42.652;23.364;2022-12-18T05:20:29;95678.66;;;4.72;75.96
33191;BME280;19554;42.652;23.364;2022-12-18T05:22:56;95547.84;;;3.84;76.31
33191;BME280;19554;42.652;23.364;2022-12-18T05:25:21;95609.00;;;4.18;76.57
33191;BME280;19554;42.652;23.364;2022-12-18T05:27:47;95612.81;;;4.22;76.51
33191;BME280;19554;42.652;23.364;2022-12-18T05:30:13;95586.16;;;3.93;76.62
33191;BME280;19554;42.652;23.364;2022-12-18T05:32:39;95675.75;;;4.43;76.88
33191;BME280;19554;42.652;23.364;2022-12-18T05:35:06;95701.31;;;4.49;76.07
33191;BME280;19554;42.652;23.364;2022-12-18T05:37:32;95573.88;;;3.62;76.48
33191;BME280;19554;42.652;23.364;2022-12-18T05:39:57;95614.88;;;4.01;76.40
33191;BME280;19554;42.652;23.364;2022-12-18T05:42:22;95670.19;;;4.33;76.46
33191;BME280;19554;42.652;23.364;2022-12-18T05:44:48;95669.31;;;4.39;76.54
33191;BME280;19554;42.652;23.364;2022-12-18T05:47:13;95699.28;;;4.51;76.29
33191;BME280;19554;42.652;23.364;2022-12-18T05:49:39;95644.22;;;4.12;76.14
33191;BME280;19554;42.652;23.364;2022-12-18T05:52:04;95626.25;;;4.02;76.09
33191;BME280;19554;42.652;23.364;2022-12-18T05:54:29;95538.34;;;3.46;75.48
33191;BME280;19554;42.652;23.364;2022-12-18T05:56:56;95624.66;;;4.01;75.45
33191;BME280;19554;42.652;23.364;2022-12-18T05:59:22;95663.97;;;4.09;75.27
33191;BME280;19554;42.652;23.364;2022-12-18T06:01:47;95711.31;;;4.29;75.46
33191;BME280;19554;42.652;23.364;2022-12-18T06:04:12;95591.56;;;3.62;75.50
33191;BME280;19554;42.652;23.364;2022-12-18T06:06:38;95713.22;;;4.40;75.49
33191;BME280;19554;42.652;23.364;2022-12-18T06:09:04;95709.56;;;4.41;75.48
33191;BME280;19554;42.652;23.364;2022-12-18T06:11:36;95673.00;;;4.01;75.55
33191;BME280;19554;42.652;23.364;2022-12-18T06:14:02;95684.53;;;4.25;75.60
33191;BME280;19554;42.652;23.364;2022-12-18T06:16:28;95664.91;;;3.96;75.27
33191;BME280;19554;42.652;23.364;2022-12-18T06:18:58;95691.34;;;4.15;75.50
33191;BME280;19554;42.652;23.364;2022-12-18T06:21:24;95725.13;;;4.31;75.62
33191;BME280;19554;42.652;23.364;2022-12-18T06:23:49;95735.63;;;4.38;75.30
33191;BME280;19554;42.652;23.364;2022-12-18T06:26:14;95703.25;;;4.24;74.71
33191;BME280;19554;42.652;23.364;2022-12-18T06:28:40;95733.34;;;4.41;74.84
33191;BME280;19554;42.652;23.364;2022-12-18T06:31:06;95692.75;;;4.17;74.79
33191;BME280;19554;42.652;23.364;2022-12-18T06:33:33;95744.50;;;4.43;75.21
33191;BME280;19554;42.652;23.364;2022-12-18T06:36:06;95750.81;;;4.42;75.41
33191;BME280;19554;42.652;23.364;2022-12-18T06:38:33;95754.63;;;4.46;75.35
33191;BME280;19554;42.652;23.364;2022-12-18T06:40:59;95733.50;;;4.28;75.06
33191;BME280;19554;42.652;23.364;2022-12-18T06:43:25;95765.94;;;4.54;75.17
33191;BME280;19554;42.652;23.364;2022-12-18T06:45:50;95763.88;;;4.56;74.58
33191;BME280;19554;42.652;23.364;2022-12-18T06:48:21;95765.78;;;4.67;74.90
33191;BME280;19554;42.652;23.364;2022-12-18T06:50:46;95748.53;;;4.46;74.38
33191;BME280;19554;42.652;23.364;2022-12-18T06:53:12;95711.75;;;4.26;74.01
33191;BME280;19554;42.652;23.364;2022-12-18T06:55:37;95756.97;;;4.55;73.65
33191;BME280;19554;42.652;23.364;2022-12-18T06:58:03;95757.13;;;4.60;73.36
33191;BME280;19554;42.652;23.364;2022-12-18T07:00:28;95781.94;;;4.77;73.30
33191;BME280;19554;42.652;23.364;2022-12-18T07:02:54;95781.56;;;4.73;72.85
33191;BME280;19554;42.652;23.364;2022-12-18T07:05:19;95753.31;;;4.56;72.70
33191;BME280;19554;42.652;23.364;2022-12-18T07:07:44;95775.84;;;4.77;72.20
33191;BME280;19554;42.652;23.364;2022-12-18T07:10:10;95779.69;;;4.62;71.39
33191;BME280;19554;42.652;23.364;2022-12-18T07:12:35;95749.47;;;4.33;71.72
33191;BME280;19554;42.652;23.364;2022-12-18T07:15:01;95733.69;;;4.26;72.15
33191;BME280;19554;42.652;23.364;2022-12-18T07:17:26;95745.53;;;4.24;72.81
33191;BME280;19554;42.652;23.364;2022-12-18T07:19:52;95783.50;;;4.48;72.70
33191;BME280;19554;42.652;23.364;2022-12-18T07:22:17;95783.41;;;4.55;72.58
33191;BME280;19554;42.652;23.364;2022-12-18T07:24:43;95774.38;;;4.44;72.63
33191;BME280;19554;42.652;23.364;2022-12-18T07:27:08;95772.47;;;4.51;72.97
33191;BME280;19554;42.652;23.364;2022-12-18T07:29:33;95798.19;;;4.62;72.37
33191;BME280;19554;42.652;23.364;2022-12-18T07:31:59;95799.44;;;4.60;72.47
33191;BME280;19554;42.652;23.364;2022-12-18T07:34:24;95802.06;;;4.60;73.08
33191;BME280;19554;42.652;23.364;2022-12-18T07:36:50;95728.09;;;4.16;72.70
33191;BME280;19554;42.652;23.364;2022-12-18T07:39:15;95670.19;;;3.78;72.36
33191;BME280;19554;42.652;23.364;2022-12-18T07:41:40;95805.53;;;4.79;72.34
33191;BME280;19554;42.652;23.364;2022-12-18T07:44:11;95775.09;;;4.51;72.35
33191;BME280;19554;42.652;23.364;2022-12-18T07:46:37;95814.41;;;4.84;71.97
33191;BME280;19554;42.652;23.364;2022-12-18T07:49:03;95809.25;;;4.71;71.70
33191;BME280;19554;42.652;23.364;2022-12-18T07:51:28;95813.53;;;4.72;71.79
33191;BME280;19554;42.652;23.364;2022-12-18T07:53:54;95760.78;;;4.40;71.31
33191;BME280;19554;42.652;23.364;2022-12-18T07:56:19;95827.19;;;4.87;72.04
33191;BME280;19554;42.652;23.364;2022-12-18T07:58:48;95826.59;;;4.85;70.90
33191;BME280;19554;42.652;23.364;2022-12-18T08:01:14;95824.97;;;4.84;70.93
33191;BME280;19554;42.652;23.364;2022-12-18T08:03:40;95832.19;;;4.59;71.43
33191;BME280;19554;42.652;23.364;2022-12-18T08:06:08;95831.44;;;4.51;71.74
33191;BME280;19554;42.652;23.364;2022-12-18T08:08:34;95837.19;;;4.48;72.22
33191;BME280;19554;42.652;23.364;2022-12-18T08:11:00;95824.66;;;4.37;71.90
33191;BME280;19554;42.652;23.364;2022-12-18T08:13:26;95857.44;;;4.55;72.19
33191;BME280;19554;42.652;23.364;2022-12-18T08:16:00;95858.25;;;4.55;72.09
33191;BME280;19554;42.652;23.364;2022-12-18T08:18:25;95864.34;;;4.56;71.99
33191;BME280;19554;42.652;23.364;2022-12-18T08:20:51;95832.44;;;4.32;71.97
33191;BME280;19554;42.652;23.364;2022-12-18T08:23:17;95859.31;;;4.47;71.77
33191;BME280;19554;42.652;23.364;2022-12-18T08:25:42;95852.78;;;4.32;71.71
33191;BME280;19554;42.652;23.364;2022-12-18T08:28:07;95847.56;;;4.25;71.37
33191;BME280;19554;42.652;23.364;2022-12-18T08:30:33;95758.63;;;3.69;71.31
33191;BME280;19554;42.652;23.364;2022-12-18T08:32:58;95851.16;;;4.31;71.60
33191;BME280;19554;42.652;23.364;2022-12-18T08:35:23;95773.91;;;3.85;70.92
33191;BME280;19554;42.652;23.364;2022-12-18T08:37:49;95781.00;;;3.91;71.10
33191;BME280;19554;42.652;23.364;2022-12-18T08:40:15;95866.41;;;4.54;71.10
33191;BME280;19554;42.652;23.364;2022-12-18T08:42:40;95876.09;;;4.60;70.83
33191;BME280;19554;42.652;23.364;2022-12-18T08:45:24;95888.47;;;4.66;70.91
33191;BME280;19554;42.652;23.364;2022-12-18T08:47:50;95888.47;;;4.66;70.60
33191;BME280;19554;42.652;23.364;2022-12-18T08:50:15;95775.34;;;3.88;70.66
33191;BME280;19554;42.652;23.364;2022-12-18T08:52:40;95890.13;;;4.60;70.38
33191;BME280;19554;42.652;23.364;2022-12-18T08:55:06;95892.34;;;4.63;70.51
33191;BME280;19554;42.652;23.364;2022-12-18T08:57:32;95887.06;;;4.63;70.43
33191;BME280;19554;42.652;23.364;2022-12-18T08:59:57;95890.13;;;4.60;70.67
33191;BME280;19554;42.652;23.364;2022-12-18T09:02:23;95794.94;;;3.98;70.41
33191;BME280;19554;42.652;23.364;2022-12-18T09:04:48;95857.63;;;4.35;70.68
33191;BME280;19554;42.652;23.364;2022-12-18T09:07:14;95897.38;;;4.46;70.19
33191;BME280;19554;42.652;23.364;2022-12-18T09:09:39;95744.09;;;3.60;70.15
33191;BME280;19554;42.652;23.364;2022-12-18T09:12:04;95886.38;;;4.49;69.93
33191;BME280;19554;42.652;23.364;2022-12-18T09:14:30;95866.94;;;4.37;70.04
33191;BME280;19554;42.652;23.364;2022-12-18T09:16:55;95833.59;;;4.18;69.90
33191;BME280;19554;42.652;23.364;2022-12-18T09:19:21;95855.56;;;4.37;70.16
33191;BME280;19554;42.652;23.364;2022-12-18T09:21:46;95880.97;;;4.63;70.31
33191;BME280;19554;42.652;23.364;2022-12-18T09:24:12;95869.28;;;4.52;70.18
33191;BME280;19554;42.652;23.364;2022-12-18T09:26:38;95876.97;;;4.54;70.02
33191;BME280;19554;42.652;23.364;2022-12-18T09:29:04;95870.13;;;4.46;70.19
33191;BME280;19554;42.652;23.364;2022-12-18T09:31:29;95868.16;;;4.41;69.78
33191;BME280;19554;42.652;23.364;2022-12-18T09:33:56;95885.19;;;4.45;69.28
33191;BME280;19554;42.652;23.364;2022-12-18T09:36:21;95883.72;;;4.49;69.71
33191;BME280;19554;42.652;23.364;2022-12-18T09:38:47;95840.78;;;4.11;69.34
33191;BME280;19554;42.652;23.364;2022-12-18T09:41:39;95898.28;;;4.34;69.30
33191;BME280;19554;42.652;23.364;2022-12-18T09:44:23;95888.84;;;4.44;68.70
33191;BME280;19554;42.652;23.364;2022-12-18T09:49:46;95897.81;;;4.43;67.56
33191;BME280;19554;42.652;23.364;2022-12-18T09:55:00;95872.97;;;4.44;67.44
33191;BME280;19554;42.652;23.364;2022-12-18T09:57:28;95883.88;;;4.55;67.30
33191;BME280;19554;42.652;23.364;2022-12-18T10:00:23;95882.88;;;4.56;67.65
33191;BME280;19554;42.652;23.364;2022-12-18T10:02:49;95865.34;;;4.36;67.83
33191;BME280;19554;42.652;23.364;2022-12-18T10:05:28;95884.75;;;4.48;67.69
33191;BME280;19554;42.652;23.364;2022-12-18T10:08:21;95840.66;;;4.24;66.91
33191;BME280;19554;42.652;23.364;2022-12-18T10:10:52;95882.50;;;4.52;66.92
33191;BME280;19554;42.652;23.364;2022-12-18T10:18:34;95891.63;;;4.74;66.12
33191;BME280;19554;42.652;23.364;2022-12-18T10:21:16;95881.25;;;4.73;65.98
33191;BME280;19554;42.652;23.364;2022-12-18T10:24:00;95889.88;;;4.87;66.11
33191;BME280;19554;42.652;23.364;2022-12-18T10:26:28;95835.56;;;4.66;66.18
33191;BME280;19554;42.652;23.364;2022-12-18T10:28:54;95821.19;;;4.62;66.13
33191;BME280;19554;42.652;23.364;2022-12-18T10:31:21;95891.88;;;5.10;65.84
33191;BME280;19554;42.652;23.364;2022-12-18T10:33:47;95791.63;;;4.46;65.68
33191;BME280;19554;42.652;23.364;2022-12-18T10:36:13;95883.47;;;4.94;64.36
33191;BME280;19554;42.652;23.364;2022-12-18T10:38:38;95851.28;;;4.61;65.08
33191;BME280;19554;42.652;23.364;2022-12-18T10:43:39;95808.94;;;4.24;65.66
33191;BME280;19554;42.652;23.364;2022-12-18T10:51:06;95852.59;;;4.51;65.81
33191;BME280;19554;42.652;23.364;2022-12-18T10:53:34;95863.78;;;4.72;66.30
33191;BME280;19554;42.652;23.364;2022-12-18T10:56:03;95887.28;;;4.80;66.11
33191;BME280;19554;42.652;23.364;2022-12-18T10:58:37;95816.91;;;4.42;66.47
33191;BME280;19554;42.652;23.364;2022-12-18T11:01:16;95875.41;;;4.89;66.34
33191;BME280;19554;42.652;23.364;2022-12-18T11:06:22;95874.34;;;5.09;65.47
33191;BME280;19554;42.652;23.364;2022-12-18T11:09:04;95889.28;;;5.21;65.42
33191;BME280;19554;42.652;23.364;2022-12-18T11:11:31;95879.50;;;5.22;64.51
33191;BME280;19554;42.652;23.364;2022-12-18T11:14:05;95882.88;;;5.29;64.68
33191;BME280;19554;42.652;23.364;2022-12-18T11:16:42;95882.28;;;5.27;63.72
33191;BME280;19554;42.652;23.364;2022-12-18T11:19:27;95858.03;;;5.12;63.74
33191;BME280;19554;42.652;23.364;2022-12-18T11:21:54;95884.34;;;5.25;63.15
33191;BME280;19554;42.652;23.364;2022-12-18T11:24:30;95850.03;;;5.00;62.22
33191;BME280;19554;42.652;23.364;2022-12-18T11:27:01;95851.00;;;4.87;62.06
33191;BME280;19554;42.652;23.364;2022-12-18T11:29:36;95855.47;;;4.87;62.15
33191;BME280;19554;42.652;23.364;2022-12-18T11:34:52;95849.97;;;4.70;62.85
33191;BME280;19554;42.652;23.364;2022-12-18T11:37:21;95858.03;;;4.75;63.48
33191;BME280;19554;42.652;23.364;2022-12-18T11:40:11;95879.50;;;4.85;62.91
33191;BME280;19554;42.652;23.364;2022-12-18T11:42:45;95868.91;;;4.85;63.14
33191;BME280;19554;42.652;23.364;2022-12-18T11:50:58;95817.44;;;4.69;62.11
33191;BME280;19554;42.652;23.364;2022-12-18T11:53:25;95892.59;;;5.17;63.11
33191;BME280;19554;42.652;23.364;2022-12-18T11:58:26;95883.50;;;5.13;62.42
33191;BME280;19554;42.652;23.364;2022-12-18T12:04:07;95889.34;;;5.15;61.65
33191;BME280;19554;42.652;23.364;2022-12-18T12:14:59;95891.94;;;5.03;61.92
33191;BME280;19554;42.652;23.364;2022-12-18T12:17:45;95893.19;;;5.01;62.07
33191;BME280;19554;42.652;23.364;2022-12-18T12:23:08;95830.25;;;4.47;63.33
33191;BME280;19554;42.652;23.364;2022-12-18T12:25:59;95892.38;;;5.00;63.09
33191;BME280;19554;42.652;23.364;2022-12-18T12:31:01;95888.19;;;5.11;63.48
33191;BME280;19554;42.652;23.364;2022-12-18T12:38:57;95902.19;;;5.30;62.70
33191;BME280;19554;42.652;23.364;2022-12-18T12:41:27;95894.78;;;5.38;62.07
33191;BME280;19554;42.652;23.364;2022-12-18T12:44:35;95897.09;;;5.46;62.06
33191;BME280;19554;42.652;23.364;2022-12-18T12:47:14;95894.25;;;5.30;62.36
33191;BME280;19554;42.652;23.364;2022-12-18T12:49:45;95893.97;;;5.38;62.52
33191;BME280;19554;42.652;23.364;2022-12-18T12:52:34;95896.22;;;5.53;62.90
33191;BME280;19554;42.652;23.364;2022-12-18T12:55:04;95905.78;;;5.54;62.27
33191;BME280;19554;42.652;23.364;2022-12-18T12:57:45;95905.28;;;5.45;62.76
33191;BME280;19554;42.652;23.364;2022-12-18T13:00:18;95876.41;;;5.25;62.36
33191;BME280;19554;42.652;23.364;2022-12-18T13:05:23;95886.41;;;5.23;62.79
33191;BME280;19554;42.652;23.364;2022-12-18T13:08:06;95889.56;;;5.32;62.63
33191;BME280;19554;42.652;23.364;2022-12-18T13:10:39;95922.84;;;5.39;62.78
33191;BME280;19554;42.652;23.364;2022-12-18T13:13:11;95768.94;;;4.39;63.06
33191;BME280;19554;42.652;23.364;2022-12-18T13:20:46;95900.81;;;5.27;63.27
33191;BME280;19554;42.652;23.364;2022-12-18T13:23:25;95923.59;;;5.46;63.01
33191;BME280;19554;42.652;23.364;2022-12-18T13:33:44;95945.13;;;5.50;62.80
33191;BME280;19554;42.652;23.364;2022-12-18T13:36:16;95944.78;;;5.28;62.98
33191;BME280;19554;42.652;23.364;2022-12-18T13:39:09;95938.44;;;5.29;62.95
33191;BME280;19554;42.652;23.364;2022-12-18T13:41:34;95923.19;;;5.13;63.14
33191;BME280;19554;42.652;23.364;2022-12-18T13:44:31;95942.56;;;5.25;63.24
33191;BME280;19554;42.652;23.364;2022-12-18T13:46:58;95953.16;;;5.25;63.09
33191;BME280;19554;42.652;23.364;2022-12-18T13:49:38;95956.84;;;5.24;63.04
33191;BME280;19554;42.652;23.364;2022-12-18T13:52:20;95955.38;;;5.28;63.21
33191;BME280;19554;42.652;23.364;2022-12-18T13:54:56;95917.06;;;5.12;63.05
33191;BME280;19554;42.652;23.364;2022-12-18T13:57:29;95966.84;;;5.40;62.92
33191;BME280;19554;42.652;23.364;2022-12-18T13:59:55;95957.44;;;5.44;63.17
33191;BME280;19554;42.652;23.364;2022-12-18T14:02:26;95851.13;;;4.74;62.84
33191;BME280;19554;42.652;23.364;2022-12-18T14:04:53;95969.19;;;5.49;62.77
33191;BME280;19554;42.652;23.364;2022-12-18T14:07:22;95973.91;;;5.46;62.92
33191;BME280;19554;42.652;23.364;2022-12-18T14:10:00;95974.63;;;5.54;62.94
33191;BME280;19554;42.652;23.364;2022-12-18T14:15:40;95970.06;;;5.42;62.44
33191;BME280;19554;42.652;23.364;2022-12-18T14:18:26;95980.81;;;5.29;61.95
33191;BME280;19554;42.652;23.364;2022-12-18T14:20:54;95982.28;;;5.25;61.65
33191;BME280;19554;42.652;23.364;2022-12-18T14:25:56;95942.34;;;5.08;61.20
33191;BME280;19554;42.652;23.364;2022-12-18T14:28:22;95976.97;;;5.07;61.07
33191;BME280;19554;42.652;23.364;2022-12-18T14:30:48;95979.34;;;5.15;60.77
33191;BME280;19554;42.652;23.364;2022-12-18T14:33:19;95976.56;;;5.10;60.61
33191;BME280;19554;42.652;23.364;2022-12-18T14:35:58;95986.81;;;4.99;60.78
33191;BME280;19554;42.652;23.364;2022-12-18T14:38:34;95987.69;;;4.93;60.40
33191;BME280;19554;42.652;23.364;2022-12-18T14:41:04;95990.91;;;4.95;60.79
33191;BME280;19554;42.652;23.364;2022-12-18T14:43:35;95984.97;;;5.00;60.39